Latest Weather Observations for Applethorpe

IDQ60801

Issued at 2:02 pm EST Wednesday 4 May 2016 (issued every 30 minutes, with the page automatically refreshed every 10 minutes)

About weather observations | Map of weather stations | Latest weather observations for QLD | Other Formats
Station Details ID: 041175 Name: APPLETHORPE Lat: -28.62 Lon: 151.95 Height: 871.6 m
Data from the previous 72 hours. | See also: Recent months at Applethorpe
Date/Time
EST
Temp
°C
App
Temp
°C
Dew
Point
Rel
Hum
%
Delta-T
°C
Wind Press
QNH
hPa
Press
MSL
hPa
Rain
since 9 am
mm
Dir
 
Spd
km/h
Gust
km/h
Spd
kts
Gust
kts
04/02:00pm 21.9 19.6 2.7 28 9.5 SSW 4 11 2 6 1017.3 1015.8 0.2
04/01:30pm 21.6 20.0 4.3 32 8.8 SW 2 11 1 6 1017.4 1015.9 0.2
04/01:00pm 20.8 19.1 5.8 37 7.8 SW 4 11 2 6 1017.7 1016.3 0.2
04/12:30pm 20.2 18.1 6.0 39 7.4 SW 6 9 3 5 1018.1 1016.7 0.2
04/12:00pm 20.1 18.4 6.1 40 7.3 SW 4 9 2 5 1018.6 1017.2 0.2
04/11:30am 18.9 16.5 5.4 41 6.9 SW 7 13 4 7 1018.9 1017.5 0.2
04/11:00am 18.5 15.6 4.5 39 7.0 SW 9 13 5 7 1019.2 1017.8 0.0
04/10:30am 18.1 14.7 2.1 34 7.6 SW 9 17 5 9 1019.8 1018.4 0.0
04/10:00am 17.4 14.3 3.7 40 6.7 SSW 9 13 5 7 1019.8 1018.4 0.0
04/09:30am 16.3 13.7 4.0 44 6.0 SSW 7 11 4 6 1019.9 1018.5 0.0
04/09:00am 15.5 13.6 7.4 58 4.2 SSW 7 13 4 7 1019.7 1018.3 0.0
04/08:30am 14.3 12.0 9.0 70 2.8 SW 11 19 6 10 1019.3 1017.9 0.0
04/08:00am 12.9 11.3 10.3 84 1.4 SW 9 15 5 8 1019.2 1017.8 0.0
04/07:30am 11.2 10.1 10.5 95 0.4 SW 7 11 4 6 1019.0 1017.6 0.0
04/07:00am 9.8 9.7 9.4 97 0.2 CALM 0 0 0 0 1018.9 1017.5 0.0
04/06:30am 9.3 8.4 9.1 99 0.1 SW 4 6 2 3 1018.5 1017.1 0.0
04/06:00am 9.9 9.8 9.3 96 0.3 CALM 0 0 0 0 1018.1 1016.7 0.0
04/05:30am 11.5 10.4 9.8 89 0.9 SW 6 11 3 6 1017.6 1016.2 0.0
04/05:00am 12.5 9.6 9.7 83 1.5 SW 15 28 8 15 1016.9 1015.5 0.0
04/04:30am 12.7 9.4 9.7 82 1.6 SW 17 28 9 15 1016.2 1014.7 0.0
04/04:00am 12.3 9.5 10.1 86 1.2 WSW 15 22 8 12 1016.3 1014.8 0.0
04/03:30am 11.8 10.1 9.9 88 1.0 SW 9 13 5 7 1016.4 1014.9 0.0
04/03:00am 12.1 10.5 10.2 88 1.0 SW 9 15 5 8 1016.4 1014.9 0.0
04/02:30am 12.4 10.5 10.4 88 1.1 SW 11 17 6 9 1016.3 1014.8 0.0
04/02:00am 12.4 10.5 10.6 89 1.0 WSW 11 17 6 9 1016.6 1015.2 0.0
04/01:30am 11.6 10.1 10.5 93 0.6 WSW 9 13 5 7 1016.6 1015.2 0.0
04/01:00am 10.8 9.8 10.4 97 0.2 WSW 6 9 3 5 1016.8 1015.4 0.0
04/12:30am 11.2 10.3 10.5 95 0.4 SW 6 6 3 3 1016.9 1015.5 0.0
04/12:00am 11.6 11.1 10.9 95 0.4 SW 4 6 2 3 1016.8 1015.4 0.0
 
Date/Time
EST
Temp
°C
App
Temp
°C
Dew
Point
Rel
Hum
%
Delta-T
°C
Wind Press
QNH
hPa
Press
MSL
hPa
Rain
since 9 am
mm
Dir
 
Spd
km/h
Gust
km/h
Spd
kts
Gust
kts
03/11:30pm 12.4 11.9 10.7 89 0.9 SW 4 7 2 4 1016.8 1015.4 0.0
03/11:00pm 12.8 11.8 11.0 89 1.0 WSW 7 13 4 7 1017.0 1015.6 0.0
03/10:30pm 12.8 11.5 11.4 91 0.8 WSW 9 13 5 7 1017.2 1015.7 0.0
03/10:00pm 12.9 11.6 11.3 90 0.9 W 9 13 5 7 1017.3 1015.8 0.0
03/09:30pm 12.7 11.4 11.4 92 0.7 WSW 9 15 5 8 1017.5 1016.1 0.0
03/09:00pm 12.7 11.9 11.8 94 0.5 W 7 15 4 8 1017.5 1016.1 0.0
03/08:30pm 12.9 12.1 11.8 93 0.6 W 7 13 4 7 1017.3 1015.8 0.0
03/08:00pm 13.1 12.3 11.8 92 0.7 WSW 7 11 4 6 1017.3 1015.8 0.0
03/07:30pm 13.4 12.7 12.0 91 0.8 W 7 13 4 7 1017.3 1015.8 0.0
03/07:00pm 13.7 13.0 11.9 89 1.0 WSW 7 13 4 7 1016.9 1015.5 0.0
03/06:30pm 13.9 12.8 12.1 89 1.0 WSW 9 13 5 7 1016.5 1015.1 0.0
03/06:00pm 14.7 13.4 12.4 86 1.3 WSW 11 20 6 11 1016.2 1014.7 0.0
03/05:30pm 15.7 14.2 11.8 77 2.2 WSW 11 20 6 11 1016.1 1014.6 0.0
03/05:00pm 16.1 14.4 11.3 73 2.7 WSW 11 20 6 11 1015.1 1013.6 0.0
03/04:30pm 17.0 15.0 11.5 70 3.1 WSW 13 22 7 12 1015.1 1013.6 0.0
03/04:00pm 18.0 15.5 10.9 63 4.0 W 15 26 8 14 1014.9 1013.4 0.0
03/03:30pm 18.3 15.6 11.7 65 3.8 W 17 30 9 16 1014.9 1013.4 0.0
03/03:00pm 18.9 16.6 11.6 62 4.2 W 15 28 8 15 1014.8 1013.3 0.0
03/02:30pm 19.5 17.1 11.5 60 4.6 W 15 28 8 15 1014.9 1013.4 0.0
03/02:00pm 19.7 17.2 11.1 57 4.9 W 15 28 8 15 1015.0 1013.5 0.0
03/01:30pm 19.2 16.5 11.7 62 4.3 W 17 24 9 13 1015.1 1013.6 0.0
03/01:00pm 18.8 16.6 12.0 64 3.9 W 15 24 8 13 1015.4 1014.0 0.0
03/12:30pm 18.9 17.3 12.7 67 3.6 WSW 13 26 7 14 1015.8 1014.4 0.0
03/12:00pm 18.9 17.6 12.4 66 3.8 W 11 26 6 14 1016.3 1014.8 0.0
03/11:30am 18.4 16.7 12.4 68 3.5 W 13 24 7 13 1016.6 1015.2 0.0
03/11:00am 18.7 17.9 12.9 69 3.4 WSW 9 19 5 10 1017.0 1015.6 0.0
03/10:30am 17.4 16.5 12.6 73 2.8 W 9 19 5 10 1017.5 1016.1 0.0
03/10:00am 17.1 16.3 12.8 76 2.5 WSW 9 17 5 9 1017.9 1016.5 0.0
03/09:30am 15.9 15.7 13.1 83 1.6 SW 6 13 3 7 1018.1 1016.7 0.0
03/09:00am 15.2 14.7 12.8 85 1.4 WSW 7 13 4 7 1018.0 1016.6 21.0
03/08:30am 14.7 14.5 13.0 89 1.0 SW 6 9 3 5 1018.0 1016.6 21.0
03/08:00am 14.2 13.9 13.2 94 0.6 SW 7 11 4 6 1017.8 1016.4 21.0
03/07:30am 13.7 13.9 13.0 96 0.4 WSW 4 7 2 4 1017.6 1016.2 21.0
03/07:00am 13.5 14.1 13.2 98 0.2 W 2 4 1 2 1017.4 1015.9 21.0
03/06:30am 13.4 14.0 13.1 98 0.2 WSW 2 6 1 3 1017.2 1015.7 21.0
03/06:00am 13.7 13.9 13.2 97 0.3 SW 4 6 2 3 1016.9 1015.5 21.0
03/05:30am 13.7 13.9 13.2 97 0.3 SW 4 7 2 4 1016.5 1015.1 21.0
03/05:00am 13.8 14.1 13.3 97 0.3 SW 4 7 2 4 1016.3 1014.8 21.0
03/04:30am 13.9 13.8 13.4 97 0.3 W 6 7 3 4 1016.2 1014.7 21.0
03/04:00am 13.5 14.2 13.3 99 0.1 SSW 2 4 1 2 1016.1 1014.6 21.0
03/03:30am 13.1 14.0 12.9 99 0.1 CALM 0 0 0 0 1016.1 1014.6 21.0
03/03:00am 12.9 13.7 12.7 99 0.1 CALM 0 0 0 0 1016.5 1015.1 21.0
03/02:30am 12.7 13.5 12.5 99 0.1 CALM 0 0 0 0 1016.5 1015.1 21.0
03/02:00am 12.3 12.6 12.1 99 0.1 N 2 4 1 2 1016.7 1015.3 21.0
03/01:30am 13.1 13.9 12.7 97 0.2 CALM 0 0 0 0 1016.6 1015.2 21.0
03/01:00am 13.7 14.7 13.2 97 0.3 CALM 0 4 0 2 1017.5 1016.1 21.0
03/12:30am 13.6 14.6 13.3 98 0.2 CALM 0 0 0 0 1017.7 1016.3 21.0
03/12:00am 13.7 14.4 13.4 98 0.2 ENE 2 6 1 3 1018.2 1016.8 21.0
 
Date/Time
EST
Temp
°C
App
Temp
°C
Dew
Point
Rel
Hum
%
Delta-T
°C
Wind Press
QNH
hPa
Press
MSL
hPa
Rain
since 9 am
mm
Dir
 
Spd
km/h
Gust
km/h
Spd
kts
Gust
kts
02/11:30pm 13.7 13.9 13.2 97 0.3 NNE 4 6 2 3 1018.3 1016.9 21.0
02/11:00pm 13.6 13.9 13.3 98 0.2 NE 4 6 2 3 1018.8 1017.4 20.6
02/10:30pm 13.5 14.5 13.2 98 0.2 CALM 0 0 0 0 1019.3 1017.9 20.6
02/10:00pm 13.4 13.6 13.2 99 0.1 SW 4 7 2 4 1019.3 1017.9 20.0
02/09:30pm 13.6 14.6 13.3 98 0.2 CALM 0 2 0 1 1019.5 1018.2 13.8
02/09:00pm 13.7 14.0 13.4 98 0.2 SW 4 4 2 2 1019.7 1018.3 9.4
02/08:30pm 13.7 14.3 13.2 97 0.3 ENE 2 4 1 2 1019.1 1017.7 8.2
02/08:00pm 13.6 14.6 13.1 97 0.3 CALM 0 4 0 2 1019.4 1018.1 7.4
02/07:30pm 13.6 14.6 13.1 97 0.3 CALM 0 2 0 1 1019.5 1018.2 5.2
02/07:00pm 13.5 14.4 13.0 97 0.3 CALM 0 0 0 0 1019.8 1018.4 4.6
02/06:30pm 13.7 13.3 13.0 96 0.4 SSW 7 11 4 6 1020.0 1018.6 3.6
02/06:00pm 14.2 14.2 13.5 96 0.4 SSW 6 9 3 5 1020.2 1018.8 2.0
02/05:30pm 14.3 13.7 13.4 94 0.5 WSW 9 17 5 9 1020.2 1018.8 1.2
02/05:00pm 15.4 12.5 12.4 82 1.7 WSW 19 30 10 16 1019.5 1018.2 0.4
02/04:30pm 18.1 18.5 12.6 70 3.2 NW 2 6 1 3 1018.0 1016.6 0.0
02/04:00pm 20.8 19.9 9.3 47 6.4 NE 4 9 2 5 1017.5 1016.1 0.0
02/03:30pm 21.5 19.7 8.1 42 7.3 NE 7 13 4 7 1017.3 1015.8 0.0
02/03:00pm 21.7 20.2 8.6 43 7.2 ENE 6 11 3 6 1016.8 1015.4 0.0
02/02:30pm 22.1 20.4 8.5 41 7.5 NE 7 13 4 7 1016.7 1015.3 0.0
02/02:00pm 22.8 21.1 7.5 37 8.3 NE 6 11 3 6 1016.8 1015.4 0.0
02/01:30pm 23.2 21.5 8.4 38 8.2 E 7 13 4 7 1017.2 1015.7 0.0
02/01:00pm 22.9 21.0 7.7 37 8.3 NE 7 15 4 8 1017.7 1016.3 0.0
02/12:30pm 23.9 21.8 8.4 37 8.6 NE 9 15 5 8 1018.2 1016.8 0.0
02/12:00pm 24.0 21.9 6.8 33 9.3 ENE 7 13 4 7 1018.7 1017.3 0.0
02/11:30am 23.1 21.3 5.3 31 9.3 ENE 4 9 2 5 1019.3 1017.9 0.0
02/11:00am 23.3 21.4 5.1 30 9.5 ENE 4 7 2 4 1019.9 1018.5 0.0
02/10:30am 23.3 21.7 6.4 33 9.0 ESE 4 7 2 4 1020.2 1018.8 0.0
02/10:00am 22.6 20.9 7.5 37 8.2 ENE 6 11 3 6 1020.6 1019.3 0.0
02/09:30am 21.2 19.8 8.9 45 6.8 ENE 6 9 3 5 1021.1 1019.7 0.0
02/09:00am 19.7 19.0 10.0 53 5.4 E 4 7 2 4 1021.2 1019.8 0.0
02/08:30am 16.2 16.8 12.0 76 2.4 CALM 0 0 0 0 1021.3 1019.9 0.0
02/08:00am 14.0 14.4 11.3 84 1.5 CALM 0 0 0 0 1021.1 1019.7 0.0
02/07:30am 11.4 11.6 10.5 94 0.5 CALM 0 0 0 0 1020.7 1019.4 0.0
02/07:00am 10.7 10.8 10.1 96 0.3 CALM 0 0 0 0 1020.6 1019.3 0.0
02/06:30am 10.2 10.1 9.6 96 0.3 CALM 0 0 0 0 1020.3 1018.9 0.0
02/06:00am 10.1 10.0 9.5 96 0.3 CALM 0 0 0 0 1020.2 1018.8 0.0
02/05:30am 9.9 9.8 9.5 97 0.2 CALM 0 0 0 0 1020.0 1018.6 0.0
02/05:00am 10.0 9.9 9.6 97 0.2 CALM 0 0 0 0 1019.9 1018.5 0.0
02/04:30am 10.2 9.8 9.8 97 0.2 NE 2 2 1 1 1019.5 1018.2 0.0
02/04:00am 10.7 10.4 10.1 96 0.3 NE 2 2 1 1 1019.4 1018.1 0.0
02/03:30am 10.9 11.0 10.3 96 0.3 CALM 0 0 0 0 1019.2 1017.8 0.0
02/03:00am 11.2 11.4 10.5 95 0.4 CALM 0 0 0 0 1018.9 1017.5 0.0
02/02:30am 11.7 12.0 11.0 95 0.4 CALM 0 0 0 0 1019.2 1017.8 0.0
02/02:00am 12.6 12.6 11.3 92 0.7 SW 2 2 1 1 1019.2 1017.8 0.0
02/01:30am 13.5 12.8 11.5 88 1.1 SW 6 7 3 4 1019.4 1018.1 0.0
02/01:00am 13.6 12.7 11.3 86 1.3 SW 7 9 4 5 1019.7 1018.3 0.0
02/12:30am 13.3 12.7 11.7 90 0.9 WSW 6 6 3 3 1019.9 1018.5 0.0
02/12:00am 14.3 13.5 11.6 84 1.5 SW 7 11 4 6 1020.2 1018.8 0.0
 
Date/Time
EST
Temp
°C
App
Temp
°C
Dew
Point
Rel
Hum
%
Delta-T
°C
Wind Press
QNH
hPa
Press
MSL
hPa
Rain
since 9 am
mm
Dir
 
Spd
km/h
Gust
km/h
Spd
kts
Gust
kts
01/11:30pm 14.9 13.7 11.7 81 1.8 SSW 9 15 5 8 1020.4 1019.1 0.0
01/11:00pm 13.7 13.1 11.7 88 1.1 W 6 7 3 4 1020.2 1018.8 0.0
01/10:30pm 14.4 14.6 11.9 85 1.4 N 2 4 1 2 1019.8 1018.4 0.0
01/10:00pm 14.9 15.6 12.3 84 1.5 CALM 0 0 0 0 1020.3 1018.9 0.0
01/09:30pm 15.9 16.3 12.6 81 1.9 SW 2 4 1 2 1020.7 1019.4 0.0
01/09:00pm 16.8 16.7 12.1 74 2.7 SSW 4 6 2 3 1021.2 1019.8 0.0
01/08:30pm 17.2 16.7 12.1 72 2.9 SW 6 11 3 6 1021.3 1019.9 0.0
01/08:00pm 16.8 16.8 13.7 82 1.8 SW 6 7 3 4 1021.2 1019.8 0.0
01/07:30pm 16.7 18.0 14.2 85 1.5 CALM 0 0 0 0 1020.7 1019.4 0.0
01/07:00pm 16.8 17.3 14.1 84 1.6 SW 4 6 2 3 1021.0 1019.6 0.0
01/06:30pm 17.0 18.3 14.1 83 1.7 CALM 0 4 0 2 1020.4 1019.1 0.0
01/06:00pm 17.7 18.0 14.5 81 1.9 S 6 9 3 5 1020.5 1019.2 0.0
01/05:30pm 18.3 18.5 15.7 85 1.6 SW 9 17 5 9 1020.7 1019.4 0.0
01/05:00pm 18.6 17.9 15.5 82 1.9 SW 13 22 7 12 1020.3 1018.9 0.0
01/04:30pm 19.6 18.5 14.3 71 3.2 SSW 13 24 7 13 1020.3 1018.9 0.0
01/04:00pm 20.9 18.3 14.8 68 3.7 SW 22 33 12 18 1019.8 1018.4 0.0
01/03:30pm 23.4 22.7 13.2 52 6.1 WSW 9 17 5 9 1019.1 1017.7 0.0
01/03:00pm 23.9 23.2 13.1 50 6.5 WSW 9 17 5 9 1019.0 1017.6 0.0
01/02:30pm 23.9 22.2 12.5 49 6.8 WSW 13 19 7 10 1018.9 1017.5 0.0

Other Formats:

Comma delimited format used in spreadsheet applications
http://www.bom.gov.au/fwo/IDQ60801/IDQ60801.94553.axf

JavaScript Object Notation format (JSON) in row-major order
http://www.bom.gov.au/fwo/IDQ60801/IDQ60801.94553.json